Manchester, Connecticut
Current Conditions -  °F | °C
As of 3:53 PM on Saturday 25 Oct 2014 (Local Time) from KHFD Reporting Station
Few Clouds Few Clouds  
Wind Chill: 66°   Ceiling: Unl
Heat Index: 66°   Visibility: 10mi
Dew Point: 41°   Wind: 8mph
Humidity: 40%   Direction: 250°WSW
Pressure: 29.63"   Gusts: NA
Location:  41.78°N, 72.52°W
Report Text: KHFD 251953Z AUTO 25007KT 10SM FEW060 19/05 A2963 RMK AO2 SLP033 T01890050
Loading
Personal Weather Stations






























Interactive Weather Map
Tropical Storm Tracking
New forecast layout! Learn more

10-Day Weather Forecast

Advertisements
Track Severe Weather on mobile